Terminal Aerodrome Forecast
Issued by NWS

Home | Current Version | Previous Version | Text Only | Print | Product List | Glossary On
Versions: 1 2 3 4 5 6 7 8 9 10 11 12 13 14 15
480
FTUS46 KLOX 031124
TAFOXR
TAF
KOXR 031124Z 0312/0412 04009KT P6SM SKC
     FM031500 06015G25KT P6SM SKC
     FM031900 06010KT P6SM SKC
     FM032100 29011KT P6SM SKC
     FM040300 05006KT P6SM SKC=

USA.gov is the U.S. government's official web portal to all federal, state and local government web resources and services.